Time;durP1;ratioP1;P1;durP2;ratioP2;P2;SDS_P1;SDS_P2;PMS_P1;PMS_P2;Temp;Humidity;BMP_temperature;BMP_pressure;BME280_temperature;BME280_humidity;BME280_pressure;Samples;Min_cycle;Max_cycle;Signal;HPM_P1;HPM_P2
2024/04/17 00:01:20;;;;;;;2.05;1.50;;;10.80;1.00;;;;;;6579184;21;20059;-76
2024/04/17 00:03:46;;;;;;;3.05;1.20;;;10.60;1.00;;;;;;6533136;21;20358;-76
2024/04/17 00:06:12;;;;;;;1.67;1.25;;;10.50;1.00;;;;;;6544303;21;20003;-76
2024/04/17 00:08:38;;;;;;;2.28;1.10;;;10.50;1.00;;;;;;6576569;21;19989;-76
2024/04/17 00:11:04;;;;;;;1.67;1.58;;;10.60;1.00;;;;;;6578971;21;20062;-76
2024/04/17 00:13:31;;;;;;;3.05;1.70;;;10.80;1.00;;;;;;6578718;21;20020;-76
2024/04/17 00:16:01;;;;;;;2.97;1.27;;;10.90;1.00;;;;;;6578844;21;19999;-77
2024/04/17 00:18:27;;;;;;;1.50;1.40;;;10.90;1.00;;;;;;6576482;21;20004;-77
2024/04/17 00:20:53;;;;;;;2.28;1.50;;;10.80;1.00;;;;;;6579109;21;19992;-76
2024/04/17 00:23:19;;;;;;;1.60;1.50;;;10.90;1.00;;;;;;6578805;21;19994;-76
2024/04/17 00:25:45;;;;;;;1.67;1.40;;;11.00;1.00;;;;;;6579073;21;20004;-76
2024/04/17 00:28:11;;;;;;;2.60;1.45;;;10.90;1.00;;;;;;6578788;21;20000;-76
2024/04/17 00:30:37;;;;;;;2.20;1.50;;;10.80;1.00;;;;;;6576687;21;19996;-76
2024/04/17 00:33:03;;;;;;;2.33;1.50;;;10.70;1.00;;;;;;6578513;21;20334;-76
2024/04/17 00:35:28;;;;;;;2.30;1.50;;;10.70;1.00;;;;;;6578224;21;20007;-76
2024/04/17 00:37:56;;;;;;;2.55;1.35;;;10.60;1.00;;;;;;6576289;21;19984;-76
2024/04/17 00:40:22;;;;;;;3.83;1.27;;;10.60;1.00;;;;;;6578613;21;20133;-76
2024/04/17 00:42:48;;;;;;;2.90;1.42;;;10.60;1.00;;;;;;6578619;21;19989;-76
2024/04/17 00:45:14;;;;;;;2.33;1.38;;;10.50;1.00;;;;;;6578644;21;19992;-76
2024/04/17 00:47:40;;;;;;;1.98;1.42;;;10.50;1.00;;;;;;6576219;21;20003;-76
2024/04/17 00:50:07;;;;;;;1.40;1.30;;;10.40;1.00;;;;;;6578495;21;20008;-76
2024/04/17 00:52:34;;;;;;;1.48;1.17;;;10.40;1.00;;;;;;6579024;21;19989;-76
2024/04/17 00:55:02;;;;;;;1.75;1.50;;;10.40;1.00;;;;;;6578775;21;20403;-76
2024/04/17 00:57:29;;;;;;;3.20;1.30;;;10.40;1.00;;;;;;6576122;21;19996;-76
2024/04/17 00:59:59;;;;;;;5.65;1.25;;;10.30;1.00;;;;;;6578600;21;19985;-76
2024/04/17 01:02:25;;;;;;;2.67;1.38;;;10.30;1.00;;;;;;6578794;21;20003;-76
2024/04/17 01:04:51;;;;;;;2.55;1.42;;;10.20;1.00;;;;;;6578667;21;19985;-76
2024/04/17 01:07:16;;;;;;;2.55;1.33;;;10.20;1.00;;;;;;6578101;21;19993;-76
2024/04/17 01:09:42;;;;;;;4.47;1.58;;;10.10;1.00;;;;;;6578415;21;19988;-76
2024/04/17 01:12:07;;;;;;;1.33;1.13;;;10.00;1.00;;;;;;6532633;21;19992;-76
2024/04/17 01:14:33;;;;;;;1.10;1.10;;;10.00;1.00;;;;;;6578451;21;20304;-76
2024/04/17 01:16:59;;;;;;;1.60;1.50;;;10.00;1.00;;;;;;6577811;21;19999;-76
2024/04/17 01:19:25;;;;;;;3.08;1.55;;;9.80;1.00;;;;;;6578297;21;19999;-76
2024/04/17 01:21:50;;;;;;;1.98;1.40;;;9.80;1.00;;;;;;6578362;21;19996;-76
2024/04/17 01:24:16;;;;;;;1.50;1.40;;;9.70;1.00;;;;;;6533050;21;20083;-77
2024/04/17 01:26:42;;;;;;;2.90;1.38;;;9.70;1.00;;;;;;6578216;21;20067;-76
2024/04/17 01:29:07;;;;;;;4.15;1.50;;;9.80;1.00;;;;;;6578446;21;20011;-76
2024/04/17 01:31:33;;;;;;;2.70;1.20;;;9.80;1.00;;;;;;6578463;21;19993;-77
2024/04/17 01:33:59;;;;;;;1.40;1.33;;;9.80;1.00;;;;;;6578172;21;20007;-76
2024/04/17 01:36:25;;;;;;;1.58;1.48;;;9.80;1.00;;;;;;6578075;21;19993;-76
2024/04/17 01:38:50;;;;;;;1.50;1.40;;;9.80;1.00;;;;;;6532205;21;19993;-76
2024/04/17 01:41:16;;;;;;;1.23;1.20;;;10.00;1.00;;;;;;6532644;21;19999;-76
2024/04/17 01:43:42;;;;;;;1.38;1.27;;;10.00;1.00;;;;;;6577955;21;20304;-76
2024/04/17 01:46:07;;;;;;;1.58;1.27;;;9.90;1.00;;;;;;6532569;21;19999;-76
2024/04/17 01:48:33;;;;;;;1.45;1.35;;;10.00;1.00;;;;;;6578512;21;19993;-76
2024/04/17 01:50:59;;;;;;;1.67;1.30;;;9.90;1.00;;;;;;6531900;21;20398;-76
2024/04/17 01:53:25;;;;;;;4.47;1.75;;;10.00;1.00;;;;;;6577786;21;19988;-76
2024/04/17 01:55:50;;;;;;;5.15;1.70;;;10.00;1.00;;;;;;6579057;21;19996;-76
2024/04/17 01:58:16;;;;;;;1.65;1.40;;;10.00;1.00;;;;;;6580649;21;20008;-76
2024/04/17 02:00:42;;;;;;;1.92;1.23;;;10.00;1.00;;;;;;6580360;21;20298;-76
2024/04/17 02:03:09;;;;;;;3.80;1.30;;;10.00;1.00;;;;;;6580205;21;19996;-76
2024/04/17 02:05:35;;;;;;;1.85;1.40;;;10.00;1.00;;;;;;6579705;21;19993;-76
2024/04/17 02:08:00;;;;;;;4.10;1.60;;;10.00;1.00;;;;;;6534567;21;20073;-76
2024/04/17 02:10:26;;;;;;;1.90;1.38;;;10.00;1.00;;;;;;6580218;21;20387;-76
2024/04/17 02:12:52;;;;;;;2.60;1.33;;;10.10;1.00;;;;;;6534281;21;20066;-76
2024/04/17 02:15:17;;;;;;;1.70;1.58;;;10.20;1.00;;;;;;6580178;21;19993;-76
2024/04/17 02:17:46;;;;;;;3.28;1.52;;;10.30;1.00;;;;;;6580167;21;20007;-76
2024/04/17 02:20:14;;;;;;;1.45;1.40;;;10.30;1.00;;;;;;6580284;21;19989;-76
2024/04/17 02:22:40;;;;;;;1.88;1.63;;;10.30;1.00;;;;;;6579686;21;20071;-76
2024/04/17 02:25:06;;;;;;;1.58;1.48;;;10.30;1.00;;;;;;6579481;21;19993;-76
2024/04/17 02:27:31;;;;;;;1.65;1.55;;;10.20;1.00;;;;;;6580198;21;19993;-76
2024/04/17 02:29:57;;;;;;;1.60;1.50;;;10.30;1.00;;;;;;6534446;21;20399;-76
2024/04/17 02:32:23;;;;;;;1.50;1.40;;;10.30;1.00;;;;;;6580282;21;20403;-76
2024/04/17 02:34:48;;;;;;;1.45;1.35;;;10.30;1.00;;;;;;6579301;21;19992;-76
2024/04/17 02:37:14;;;;;;;1.35;1.27;;;10.20;1.00;;;;;;6579930;21;20352;-76
2024/04/17 02:39:42;;;;;;;1.30;1.30;;;10.20;1.00;;;;;;6580100;21;20000;-76
2024/04/17 02:42:11;;;;;;;4.13;1.35;;;10.20;1.00;;;;;;6534067;21;19993;-76
2024/04/17 02:44:40;;;;;;;1.15;1.10;;;10.20;1.00;;;;;;6533902;21;20038;-76
2024/04/17 02:47:06;;;;;;;1.70;1.60;;;10.20;1.00;;;;;;6579984;21;19988;-76
2024/04/17 02:49:32;;;;;;;1.10;1.02;;;10.10;1.00;;;;;;6533910;21;20003;-76
2024/04/17 02:51:57;;;;;;;1.67;1.58;;;10.10;1.00;;;;;;6533947;21;20511;-76
2024/04/17 02:54:23;;;;;;;1.65;1.42;;;10.00;1.00;;;;;;6579599;21;20287;-76
2024/04/17 02:56:49;;;;;;;2.80;1.40;;;9.90;1.00;;;;;;6579640;21;20302;-76
2024/04/17 02:59:14;;;;;;;1.70;1.60;;;9.90;1.00;;;;;;6579868;21;20362;-76
2024/04/17 03:01:40;;;;;;;1.35;1.17;;;9.90;1.00;;;;;;6579718;21;19996;-76
2024/04/17 03:04:05;;;;;;;1.23;1.13;;;10.00;1.00;;;;;;6579431;21;19996;-76
2024/04/17 03:06:36;;;;;;;2.60;1.38;;;10.00;1.00;;;;;;6551902;21;20004;-76
2024/04/17 03:09:05;;;;;;;1.48;1.27;;;10.00;1.00;;;;;;6577562;21;20000;-76
2024/04/17 03:11:31;;;;;;;2.25;1.10;;;10.00;1.00;;;;;;6579367;21;19989;-76
2024/04/17 03:13:56;;;;;;;1.63;1.10;;;10.10;1.00;;;;;;6579655;21;19996;-77
2024/04/17 03:16:22;;;;;;;1.63;1.52;;;10.10;1.00;;;;;;6577101;21;19993;-76
2024/04/17 03:18:47;;;;;;;3.90;1.30;;;10.20;1.00;;;;;;6579472;21;20024;-76
2024/04/17 03:21:13;;;;;;;2.60;1.40;;;10.30;1.00;;;;;;6579533;21;20403;-76
2024/04/17 03:23:39;;;;;;;1.65;1.17;;;10.20;1.00;;;;;;6579483;21;20004;-76
2024/04/17 03:26:04;;;;;;;1.42;1.30;;;10.20;1.00;;;;;;6577266;21;20008;-76
2024/04/17 03:28:30;;;;;;;1.38;1.27;;;10.10;1.00;;;;;;6579405;21;19988;-76
2024/04/17 03:31:00;;;;;;;2.83;1.10;;;10.10;1.00;;;;;;6579626;21;20004;-76
2024/04/17 03:33:25;;;;;;;1.23;1.13;;;10.10;1.00;;;;;;6579315;21;20000;-76
2024/04/17 03:35:58;;;;;;;3.33;1.27;;;10.10;1.00;;;;;;6579382;21;20309;-76
2024/04/17 03:38:27;;;;;;;1.17;1.17;;;9.90;1.00;;;;;;6579232;21;19997;-76
2024/04/17 03:40:54;;;;;;;1.42;1.13;;;9.90;1.00;;;;;;6578942;21;20403;-76
2024/04/17 03:43:20;;;;;;;1.85;1.30;;;10.00;1.00;;;;;;6576771;21;19996;-76
2024/04/17 03:45:45;;;;;;;1.40;1.30;;;10.00;1.00;;;;;;6579050;21;19999;-76
2024/04/17 03:48:11;;;;;;;4.63;1.67;;;10.00;1.00;;;;;;6578905;21;20252;-76
2024/04/17 03:50:37;;;;;;;2.53;1.23;;;10.10;1.00;;;;;;6578884;21;20004;-76
2024/04/17 03:53:03;;;;;;;1.40;1.40;;;10.10;1.00;;;;;;6579521;21;20000;-76
2024/04/17 03:55:29;;;;;;;1.50;1.40;;;10.10;1.00;;;;;;6578740;21;20415;-76
2024/04/17 03:57:54;;;;;;;1.73;1.25;;;10.10;1.00;;;;;;6578742;21;19989;-76
2024/04/17 04:00:20;;;;;;;3.30;1.33;;;10.10;1.00;;;;;;6579246;21;19992;-76
2024/04/17 04:02:46;;;;;;;2.03;1.20;;;10.20;1.00;;;;;;6579106;21;20003;-76
2024/04/17 04:05:11;;;;;;;2.60;1.42;;;10.20;1.00;;;;;;6579596;21;20074;-76
2024/04/17 04:07:38;;;;;;;1.55;1.20;;;10.20;1.00;;;;;;6578913;21;20000;-77
2024/04/17 04:10:05;;;;;;;1.77;1.15;;;10.10;1.00;;;;;;6578634;21;20061;-76
2024/04/17 04:12:31;;;;;;;1.80;1.45;;;10.00;1.00;;;;;;6532825;21;19999;-76
2024/04/17 04:14:57;;;;;;;3.78;1.20;;;10.00;1.00;;;;;;6578800;21;20411;-76
2024/04/17 04:17:22;;;;;;;1.08;1.00;;;10.00;1.00;;;;;;6532544;21;19988;-76
2024/04/17 04:19:49;;;;;;;2.70;0.95;;;10.00;1.00;;;;;;6578577;21;20004;-76
2024/04/17 04:22:15;;;;;;;1.10;1.00;;;9.90;1.00;;;;;;6578601;21;20000;-76
2024/04/17 04:24:41;;;;;;;1.00;1.00;;;10.00;1.00;;;;;;6579363;21;19999;-76
2024/04/17 04:27:09;;;;;;;0.93;0.82;;;10.00;1.00;;;;;;6578832;21;20306;-76
2024/04/17 04:29:35;;;;;;;2.88;1.00;;;10.10;1.00;;;;;;6532914;21;20432;-76
2024/04/17 04:32:01;;;;;;;1.52;1.42;;;10.10;1.00;;;;;;6578834;21;19992;-76
2024/04/17 04:34:27;;;;;;;0.80;0.80;;;10.10;1.00;;;;;;6578841;21;19992;-76
2024/04/17 04:36:52;;;;;;;1.20;0.70;;;10.00;1.00;;;;;;6578782;21;19992;-76
2024/04/17 04:39:18;;;;;;;2.58;0.88;;;10.10;1.00;;;;;;6533021;21;19988;-76
2024/04/17 04:41:47;;;;;;;6.10;1.27;;;10.10;1.00;;;;;;6579093;21;20006;-76
2024/04/17 04:44:12;;;;;;;0.80;0.80;;;10.00;1.00;;;;;;6578394;21;20004;-76
2024/04/17 04:46:38;;;;;;;0.90;0.90;;;10.00;1.00;;;;;;6578990;21;19993;-76
2024/04/17 04:49:04;;;;;;;1.55;0.90;;;10.00;1.00;;;;;;6578693;21;20003;-76
2024/04/17 04:51:29;;;;;;;0.75;0.75;;;10.10;1.00;;;;;;6532571;21;19996;-76
2024/04/17 04:53:55;;;;;;;0.85;0.82;;;10.10;1.00;;;;;;6578466;21;19999;-76
2024/04/17 04:56:21;;;;;;;1.33;0.80;;;10.10;1.00;;;;;;6578021;21;19992;-76
2024/04/17 04:58:47;;;;;;;0.98;0.85;;;10.10;1.00;;;;;;6578604;21;20008;-76
2024/04/17 05:01:13;;;;;;;3.35;1.20;;;10.10;1.00;;;;;;6578356;21;19992;-76
2024/04/17 05:03:39;;;;;;;1.73;0.88;;;10.10;1.00;;;;;;6578515;21;20644;-76
2024/04/17 05:06:04;;;;;;;3.72;0.90;;;10.10;1.00;;;;;;6578369;21;20066;-77
2024/04/17 05:08:31;;;;;;;1.02;0.85;;;10.10;1.00;;;;;;6578372;21;20007;-76
2024/04/17 05:10:56;;;;;;;0.70;0.70;;;10.10;1.00;;;;;;6578217;21;19984;-76
2024/04/17 05:13:22;;;;;;;2.33;1.02;;;10.10;1.00;;;;;;6578428;21;20167;-76
2024/04/17 05:15:48;;;;;;;1.92;0.88;;;10.10;1.00;;;;;;6578377;21;19989;-76
2024/04/17 05:18:13;;;;;;;1.25;0.93;;;10.20;1.00;;;;;;6532553;21;20481;-76
2024/04/17 05:20:39;;;;;;;1.45;0.95;;;10.20;1.00;;;;;;6578463;21;20003;-76
2024/04/17 05:23:05;;;;;;;2.63;0.70;;;10.30;1.00;;;;;;6532844;21;19993;-76
2024/04/17 05:25:30;;;;;;;2.08;0.70;;;10.20;1.00;;;;;;6578789;21;20074;-76
2024/04/17 05:27:56;;;;;;;2.20;0.90;;;10.30;1.00;;;;;;6532165;21;20434;-76
2024/04/17 05:30:22;;;;;;;0.80;0.70;;;10.30;1.00;;;;;;6579765;21;19993;-76
2024/04/17 05:32:48;;;;;;;2.58;0.60;;;10.40;1.00;;;;;;6580237;21;20066;-76
2024/04/17 05:35:13;;;;;;;1.27;0.60;;;10.40;1.00;;;;;;6581111;21;20008;-76
2024/04/17 05:37:39;;;;;;;2.20;0.90;;;10.40;1.00;;;;;;6580807;21;20002;-76
2024/04/17 05:40:06;;;;;;;2.38;1.08;;;10.50;1.00;;;;;;6580423;21;20007;-76
2024/04/17 05:42:32;;;;;;;1.35;0.90;;;10.50;1.00;;;;;;6580581;21;20419;-76
2024/04/17 05:44:57;;;;;;;3.45;0.90;;;10.60;1.00;;;;;;6580155;21;20003;-76
2024/04/17 05:47:24;;;;;;;5.72;0.88;;;10.60;1.00;;;;;;6579611;21;20066;-76
2024/04/17 05:49:49;;;;;;;0.85;0.80;;;10.70;1.00;;;;;;6580300;21;19996;-76
2024/04/17 05:52:16;;;;;;;1.55;0.75;;;10.70;1.00;;;;;;6534635;21;20295;-77
2024/04/17 05:54:42;;;;;;;1.25;0.77;;;10.80;1.00;;;;;;6580322;21;19988;-76
2024/04/17 05:57:08;;;;;;;1.58;0.60;;;10.90;1.00;;;;;;6579819;21;20524;-76
2024/04/17 05:59:35;;;;;;;1.58;0.80;;;10.90;1.00;;;;;;6580587;21;20012;-76
2024/04/17 06:02:01;;;;;;;1.92;0.73;;;11.10;1.00;;;;;;6534784;21;20320;-76
2024/04/17 06:04:29;;;;;;;0.50;0.50;;;11.20;1.00;;;;;;6533800;21;19996;-76
2024/04/17 06:06:55;;;;;;;2.97;0.98;;;11.20;1.00;;;;;;6579570;21;20419;-76
2024/04/17 06:09:21;;;;;;;0.60;0.60;;;11.30;1.00;;;;;;6579808;21;20070;-76
2024/04/17 06:11:47;;;;;;;0.57;0.57;;;11.40;99.90;;;;;;6579830;21;20430;-76
2024/04/17 06:14:13;;;;;;;4.68;0.70;;;11.40;99.90;;;;;;6580036;21;20004;-76
2024/04/17 06:16:38;;;;;;;3.97;0.90;;;11.50;99.90;;;;;;6579939;21;20062;-76
2024/04/17 06:19:04;;;;;;;1.90;0.77;;;11.60;99.90;;;;;;6579681;21;19993;-76
2024/04/17 06:21:30;;;;;;;4.68;1.25;;;11.70;99.90;;;;;;6534248;21;19995;-76
2024/04/17 06:23:55;;;;;;;1.73;1.00;;;11.80;99.90;;;;;;6580094;21;19989;-76
2024/04/17 06:26:21;;;;;;;2.55;1.17;;;12.00;99.90;;;;;;6534159;21;19996;-77
2024/04/17 06:28:47;;;;;;;3.17;0.80;;;12.10;99.90;;;;;;6580075;21;20074;-77
2024/04/17 06:31:13;;;;;;;7.88;1.20;;;12.10;99.90;;;;;;6580061;21;20004;-76
2024/04/17 06:33:38;;;;;;;5.60;1.00;;;12.20;99.90;;;;;;6579976;21;20439;-76
2024/04/17 06:36:05;;;;;;;3.97;0.90;;;12.20;99.90;;;;;;6579972;21;19997;-77
2024/04/17 06:38:30;;;;;;;2.72;0.98;;;12.30;99.90;;;;;;6579414;21;19992;-76
2024/04/17 06:40:56;;;;;;;3.05;0.80;;;12.30;99.90;;;;;;6579600;21;20007;-77
2024/04/17 06:43:23;;;;;;;2.72;0.88;;;12.30;99.90;;;;;;6579786;21;20002;-76
2024/04/17 06:45:48;;;;;;;2.75;0.88;;;12.40;99.90;;;;;;6579770;21;19992;-77
2024/04/17 06:48:14;;;;;;;2.75;0.68;;;12.50;99.90;;;;;;6579772;21;20341;-77
2024/04/17 06:50:40;;;;;;;1.25;0.80;;;12.50;99.90;;;;;;6579907;21;20003;-77
2024/04/17 06:53:11;;;;;;;2.53;1.08;;;12.50;99.90;;;;;;6533166;21;19988;-77
2024/04/17 06:55:37;;;;;;;1.98;1.08;;;12.60;99.90;;;;;;6533773;21;19992;-76
2024/04/17 06:58:05;;;;;;;1.92;1.00;;;12.50;99.90;;;;;;6579754;21;20306;-76
2024/04/17 07:00:32;;;;;;;3.55;1.10;;;12.50;99.90;;;;;;6580235;21;19999;-77
2024/04/17 07:02:58;;;;;;;3.47;0.98;;;12.50;99.90;;;;;;6580033;21;20003;-77
2024/04/17 07:05:25;;;;;;;3.63;1.00;;;12.60;99.90;;;;;;6579490;21;20021;-76
2024/04/17 07:07:50;;;;;;;3.83;1.13;;;12.50;99.90;;;;;;6533790;21;19993;-76
2024/04/17 07:10:16;;;;;;;4.13;0.90;;;12.50;99.90;;;;;;6533766;21;20035;-77
2024/04/17 07:12:42;;;;;;;5.40;0.80;;;12.50;99.90;;;;;;6533863;21;20407;-77
2024/04/17 07:15:09;;;;;;;1.52;0.63;;;12.50;99.90;;;;;;6579777;21;20016;-77
2024/04/17 07:17:34;;;;;;;3.30;1.20;;;12.60;35.40;;;;;;6579569;21;20008;-76
2024/04/17 07:20:00;;;;;;;5.57;0.60;;;12.60;7.10;;;;;;6579592;21;20063;-77
2024/04/17 07:22:26;;;;;;;2.28;0.68;;;12.70;1.00;;;;;;6533515;21;20085;-77
2024/04/17 07:24:51;;;;;;;0.60;0.60;;;12.70;1.00;;;;;;6579822;21;20341;-77
2024/04/17 07:27:17;;;;;;;0.70;0.70;;;12.70;1.00;;;;;;6579459;21;19996;-76
2024/04/17 07:29:43;;;;;;;4.72;0.60;;;12.80;1.00;;;;;;6579888;21;20012;-77
2024/04/17 07:32:08;;;;;;;0.98;0.65;;;12.70;1.00;;;;;;6579292;21;19992;-76
2024/04/17 07:34:34;;;;;;;3.33;0.85;;;12.70;99.90;;;;;;6579738;21;19996;-77
2024/04/17 07:37:00;;;;;;;1.98;0.80;;;12.80;99.90;;;;;;6579525;21;20007;-77
2024/04/17 07:39:25;;;;;;;2.65;0.98;;;12.90;1.00;;;;;;6579224;21;20415;-77
2024/04/17 07:41:51;;;;;;;3.10;0.70;;;13.00;99.90;;;;;;6579044;21;20078;-76
2024/04/17 07:44:17;;;;;;;3.80;0.77;;;13.00;99.90;;;;;;6579207;21;20305;-76
2024/04/17 07:46:42;;;;;;;0.95;0.60;;;13.10;99.90;;;;;;6533697;21;19996;-77
2024/04/17 07:49:08;;;;;;;6.43;1.48;;;13.10;99.90;;;;;;6579279;21;20379;-77
2024/04/17 07:51:34;;;;;;;1.25;0.73;;;13.10;99.90;;;;;;6579446;21;20006;-76
2024/04/17 07:54:00;;;;;;;2.05;0.60;;;13.20;99.90;;;;;;6533250;21;20395;-77
2024/04/17 07:56:28;;;;;;;1.70;0.60;;;13.20;99.90;;;;;;6532982;21;20175;-77
2024/04/17 07:58:54;;;;;;;2.15;0.80;;;13.30;99.90;;;;;;6579553;21;20015;-77
2024/04/17 08:01:19;;;;;;;2.83;0.68;;;13.40;99.90;;;;;;6579211;21;20459;-77
2024/04/17 08:03:45;;;;;;;3.45;0.95;;;13.40;99.90;;;;;;6579074;21;19993;-77
2024/04/17 08:06:12;;;;;;;3.90;0.75;;;13.40;99.90;;;;;;6578345;21;20007;-77
2024/04/17 08:08:41;;;;;;;0.68;0.60;;;13.40;99.90;;;;;;6578802;21;19988;-77
2024/04/17 08:11:07;;;;;;;1.27;0.75;;;13.40;99.90;;;;;;6578704;21;20047;-77
2024/04/17 08:13:32;;;;;;;2.60;0.88;;;13.40;99.90;;;;;;6532827;21;19992;-77
2024/04/17 08:15:58;;;;;;;1.40;0.57;;;13.40;99.90;;;;;;6533154;21;19988;-77
2024/04/17 08:18:24;;;;;;;2.05;0.90;;;13.50;99.90;;;;;;6579042;21;20066;-77
2024/04/17 08:20:56;;;;;;;2.47;0.90;;;13.50;99.90;;;;;;6533042;21;20003;-77
2024/04/17 08:23:22;;;;;;;1.10;0.93;;;13.60;99.90;;;;;;6578596;21;19996;-76
2024/04/17 08:25:47;;;;;;;1.58;0.75;;;13.50;99.90;;;;;;6579010;21;20302;-77
2024/04/17 08:28:13;;;;;;;4.20;1.05;;;13.60;99.90;;;;;;6578853;21;20000;-76
2024/04/17 08:30:38;;;;;;;3.13;0.80;;;13.70;99.90;;;;;;6578734;21;20007;-76
2024/04/17 08:33:04;;;;;;;6.75;1.00;;;13.70;99.90;;;;;;6578748;21;19993;-77
2024/04/17 08:35:30;;;;;;;1.13;0.77;;;13.70;99.90;;;;;;6533214;21;20345;-77
2024/04/17 08:37:55;;;;;;;1.40;0.80;;;13.70;99.90;;;;;;6579021;21;19998;-77
2024/04/17 08:40:22;;;;;;;1.40;0.88;;;13.70;99.90;;;;;;6579152;21;19996;-77
2024/04/17 08:42:51;;;;;;;2.60;1.33;;;13.70;99.90;;;;;;6578656;21;20308;-77
2024/04/17 08:45:26;;;;;;;1.35;1.20;;;13.70;99.90;;;;;;6533014;21;19993;-77
2024/04/17 08:47:53;;;;;;;1.40;1.30;;;13.70;1.00;;;;;;6532503;21;20362;-77
2024/04/17 08:50:21;;;;;;;3.42;1.50;;;13.80;99.90;;;;;;6532836;21;20004;-77
2024/04/17 08:52:48;;;;;;;2.45;1.10;;;13.70;99.90;;;;;;6578427;21;19989;-77
2024/04/17 08:55:13;;;;;;;2.38;1.10;;;13.80;99.90;;;;;;6578724;21;19993;-77
2024/04/17 08:57:39;;;;;;;5.07;1.65;;;13.90;1.00;;;;;;6578441;21;20002;-76
2024/04/17 09:00:06;;;;;;;3.60;1.38;;;14.00;99.90;;;;;;6578719;21;19984;-77
2024/04/17 09:02:33;;;;;;;5.80;1.48;;;14.00;99.90;;;;;;6578396;21;20003;-77
2024/04/17 09:04:59;;;;;;;3.97;1.48;;;14.00;99.90;;;;;;6578097;21;20003;-77
2024/04/17 09:07:26;;;;;;;2.63;1.30;;;14.10;1.00;;;;;;6578402;21;19997;-77
2024/04/17 09:09:53;;;;;;;4.13;1.23;;;14.10;1.00;;;;;;6578378;21;20003;-77
2024/04/17 09:12:20;;;;;;;7.22;1.30;;;14.10;1.00;;;;;;6578544;21;20032;-77
2024/04/17 09:14:46;;;;;;;7.55;1.80;;;14.00;1.00;;;;;;6578457;21;20430;-77
2024/04/17 09:17:11;;;;;;;6.07;1.45;;;14.10;1.00;;;;;;6577927;21;19996;-77
2024/04/17 09:19:37;;;;;;;5.15;1.90;;;14.30;1.00;;;;;;6578536;21;20430;-77
2024/04/17 09:22:06;;;;;;;5.32;1.48;;;14.20;99.90;;;;;;6578060;21;20070;-77
2024/04/17 09:24:39;;;;;;;3.85;1.50;;;14.20;99.90;;;;;;6532333;21;20004;-77
2024/04/17 09:27:06;;;;;;;3.13;1.20;;;14.30;99.90;;;;;;6532699;21;19988;-77
2024/04/17 09:29:32;;;;;;;3.85;1.50;;;14.40;99.90;;;;;;6532253;21;20003;-77
2024/04/17 09:31:58;;;;;;;2.63;1.88;;;14.40;99.90;;;;;;6579576;21;20070;-77
2024/04/17 09:34:24;;;;;;;2.38;1.50;;;14.40;99.90;;;;;;6579358;21;19992;-76
2024/04/17 09:36:49;;;;;;;2.63;1.70;;;14.50;99.90;;;;;;6579782;21;19993;-77
2024/04/17 09:39:15;;;;;;;2.65;1.65;;;14.50;99.90;;;;;;6579399;21;20003;-77
2024/04/17 09:41:42;;;;;;;5.03;2.10;;;14.60;99.90;;;;;;6533518;21;19996;-76
2024/04/17 09:44:12;;;;;;;6.32;2.47;;;14.70;1.00;;;;;;6579025;21;19988;-76
2024/04/17 09:46:38;;;;;;;5.20;2.20;;;14.80;1.00;;;;;;6579911;21;20298;-77
2024/04/17 09:49:21;;;;;;;3.78;2.00;;;14.80;99.90;;;;;;6533138;21;20082;-77
2024/04/17 09:51:53;;;;;;;1.50;1.40;;;14.90;99.90;;;;;;6579017;21;19999;-77
2024/04/17 09:54:20;;;;;;;;;;;14.90;99.90;;;;;;6533904;21;19993;-77
2024/04/17 09:56:47;;;;;;;7.32;2.47;;;14.90;99.90;;;;;;6532471;21;19922;-77
2024/04/17 09:59:15;;;;;;;2.38;1.60;;;14.90;99.90;;;;;;6578953;21;20005;-77
2024/04/17 10:01:42;;;;;;;7.00;2.42;;;15.00;99.90;;;;;;6578505;21;20003;-77
2024/04/17 10:04:09;;;;;;;7.38;2.22;;;15.00;99.90;;;;;;6577960;21;20029;-77
2024/04/17 10:06:37;;;;;;;4.97;1.95;;;15.00;99.90;;;;;;6578303;21;19993;-77
2024/04/17 10:09:04;;;;;;;2.30;2.10;;;15.00;99.90;;;;;;6577825;21;20307;-77
2024/04/17 10:11:31;;;;;;;7.38;1.90;;;15.10;99.90;;;;;;6578297;21;20065;-77
2024/04/17 10:13:58;;;;;;;4.53;1.55;;;15.20;99.90;;;;;;6578451;21;19992;-77
2024/04/17 10:16:24;;;;;;;2.40;1.30;;;15.30;99.90;;;;;;6578711;21;20003;-77
2024/04/17 10:18:50;;;;;;;4.18;1.90;;;15.40;99.90;;;;;;6580590;21;20272;-77
2024/04/17 10:21:23;;;;;;;8.02;1.92;;;15.50;99.90;;;;;;6580547;21;20413;-77
2024/04/17 10:24:09;;;;;;;4.82;1.80;;;15.60;99.90;;;;;;6580118;21;19996;-77
2024/04/17 10:26:46;;;;;;;3.58;1.88;;;15.90;99.90;;;;;;6580284;21;19996;-77
2024/04/17 10:29:26;;;;;;;7.22;1.88;;;16.10;99.90;;;;;;6580808;21;20003;-77
2024/04/17 10:32:02;;;;;;;2.30;1.50;;;16.20;99.90;;;;;;6580269;21;19984;-77
2024/04/17 10:34:29;;;;;;;9.52;1.65;;;16.20;29.50;;;;;;6580076;21;19992;-77
2024/04/17 10:37:00;;;;;;;2.28;1.58;;;16.30;59.00;;;;;;6580344;21;20004;-76
2024/04/17 10:39:27;;;;;;;3.28;1.40;;;16.30;1.00;;;;;;6580307;21;20035;-77
2024/04/17 10:41:53;;;;;;;4.15;1.60;;;16.20;1.00;;;;;;6579918;21;20001;-77
2024/04/17 10:44:22;;;;;;;4.60;1.60;;;16.20;35.30;;;;;;6579559;21;20000;-77
2024/04/17 10:46:48;;;;;;;2.90;1.80;;;16.20;15.70;;;;;;6534306;21;19988;-77
2024/04/17 10:49:17;;;;;;;6.43;1.63;;;16.10;1.00;;;;;;6533972;21;20003;-77
2024/04/17 10:51:44;;;;;;;3.38;1.90;;;15.90;26.60;;;;;;6580135;21;19993;-77
2024/04/17 10:54:13;;;;;;;3.80;2.20;;;15.90;27.80;;;;;;6579874;21;20092;-77
2024/04/17 10:56:39;;;;;;;5.13;2.45;;;15.80;19.50;;;;;;6579881;21;20426;-77
2024/04/17 10:59:05;;;;;;;6.18;2.65;;;15.80;16.80;;;;;;6534012;21;19992;-77
2024/04/17 11:01:31;;;;;;;3.85;2.08;;;15.80;1.00;;;;;;6579918;21;20007;-77
2024/04/17 11:03:57;;;;;;;5.20;2.38;;;15.80;1.00;;;;;;6579339;21;19992;-77
2024/04/17 11:06:23;;;;;;;9.65;3.00;;;15.80;17.40;;;;;;6579647;21;19992;-77
2024/04/17 11:08:49;;;;;;;3.05;2.53;;;15.80;13.30;;;;;;6579520;21;19992;-77
2024/04/17 11:11:18;;;;;;;3.60;2.70;;;15.80;26.60;;;;;;6579599;21;20025;-77
2024/04/17 11:13:44;;;;;;;13.07;3.05;;;16.00;10.50;;;;;;6579607;21;20000;-77
2024/04/17 11:16:10;;;;;;;6.28;2.67;;;16.10;7.30;;;;;;6579688;21;20004;-76
2024/04/17 11:18:37;;;;;;;5.00;2.88;;;16.20;28.20;;;;;;6579837;21;19993;-77
2024/04/17 11:21:03;;;;;;;4.13;2.35;;;16.30;6.40;;;;;;6533891;21;20640;-76
2024/04/17 11:23:43;;;;;;;5.15;2.00;;;16.40;1.00;;;;;;6533844;21;19992;-77
2024/04/17 11:26:12;;;;;;;5.63;2.20;;;16.40;1.00;;;;;;6579682;21;20403;-77
2024/04/17 11:28:42;;;;;;;5.00;1.90;;;16.50;1.00;;;;;;6579192;21;20004;-77
2024/04/17 11:31:09;;;;;;;3.60;2.40;;;16.50;1.00;;;;;;6579374;21;19992;-77
2024/04/17 11:33:39;;;;;;;6.30;2.00;;;16.50;1.00;;;;;;6579446;21;19993;-77
2024/04/17 11:36:12;;;;;;;4.40;2.50;;;16.50;1.00;;;;;;6579629;21;20326;-76
2024/04/17 11:38:39;;;;;;;4.38;2.25;;;16.50;1.00;;;;;;6579573;21;20399;-77
2024/04/17 11:41:05;;;;;;;9.85;3.78;;;16.60;1.00;;;;;;6533408;21;20402;-77
2024/04/17 11:43:30;;;;;;;7.32;3.55;;;16.60;1.00;;;;;;6533495;21;20030;-77
2024/04/17 11:45:56;;;;;;;6.63;3.45;;;16.50;1.00;;;;;;6533351;21;20004;-77
2024/04/17 11:48:22;;;;;;;5.40;2.90;;;16.40;1.00;;;;;;6578832;21;19999;-76
2024/04/17 11:50:48;;;;;;;3.72;2.63;;;16.40;1.00;;;;;;6579141;21;20198;-77
2024/04/17 11:53:14;;;;;;;3.53;2.50;;;16.30;1.00;;;;;;6579512;21;20029;-77
2024/04/17 11:55:40;;;;;;;6.03;3.15;;;16.40;1.00;;;;;;6533053;21;19988;-77
2024/04/17 11:58:06;;;;;;;7.25;3.28;;;16.30;1.00;;;;;;6579638;21;20306;-77
2024/04/17 12:00:32;;;;;;;5.10;3.00;;;16.30;1.00;;;;;;6579120;21;20004;-77
2024/04/17 12:02:57;;;;;;;5.60;3.25;;;16.20;1.00;;;;;;6533086;21;20007;-77
2024/04/17 12:05:23;;;;;;;5.20;2.83;;;16.20;1.00;;;;;;6579108;21;19992;-77
2024/04/17 12:07:50;;;;;;;3.47;2.45;;;16.10;1.00;;;;;;6578634;21;20422;-77
2024/04/17 12:10:19;;;;;;;7.10;2.92;;;16.10;1.00;;;;;;6578668;21;20016;-77
2024/04/17 12:12:46;;;;;;;5.82;3.00;;;16.20;1.00;;;;;;6579245;21;19989;-77
2024/04/17 12:15:11;;;;;;;12.07;4.57;;;16.30;1.00;;;;;;6578618;21;20489;-77
2024/04/17 12:17:37;;;;;;;11.75;4.20;;;16.30;1.00;;;;;;6578716;21;19992;-77
2024/04/17 12:20:03;;;;;;;8.30;3.90;;;16.20;1.00;;;;;;6578988;21;19996;-77
2024/04/17 12:22:29;;;;;;;12.23;3.90;;;16.30;1.00;;;;;;6578678;21;19992;-77
2024/04/17 12:27:39;;;;;;;5.22;3.80;;;16.40;1.00;;;;;;6578719;21;20066;-76
2024/04/17 12:30:05;;;;;;;9.35;3.75;;;16.40;1.00;;;;;;6532994;21;19992;-77
2024/04/17 12:32:30;;;;;;;10.55;4.10;;;16.50;1.00;;;;;;6578884;21;20021;-77
2024/04/17 12:34:56;;;;;;;10.77;4.07;;;16.50;1.00;;;;;;6532898;21;20303;-77
2024/04/17 12:37:22;;;;;;;5.18;3.80;;;16.50;1.00;;;;;;6579024;21;20312;-77
2024/04/17 12:39:47;;;;;;;5.90;3.15;;;16.50;1.00;;;;;;6577952;21;20004;-76
2024/04/17 12:42:15;;;;;;;6.25;2.33;;;16.50;1.00;;;;;;6578290;21;19999;-77
2024/04/17 12:44:40;;;;;;;3.88;1.85;;;16.50;1.00;;;;;;6578405;21;19997;-77
2024/04/17 12:47:06;;;;;;;3.00;2.72;;;16.60;1.00;;;;;;6578938;21;20324;-77
2024/04/17 12:49:35;;;;;;;2.83;2.30;;;16.50;1.00;;;;;;6578559;21;20090;-77
2024/04/17 12:52:00;;;;;;;5.43;3.25;;;16.60;1.00;;;;;;6532416;21;20004;-76
2024/04/17 12:54:26;;;;;;;7.53;3.28;;;16.60;1.00;;;;;;6578669;21;20070;-77